TimeCDT,TemperatureF,Dew PointF,Humidity,Sea Level PressureIn,VisibilityMPH,Wind Direction,Wind SpeedMPH,Gust SpeedMPH,PrecipitationIn,Events,Conditions,WindDirDegrees,DateUTC
12:53 AM,70.0,55.0,59,30.09,10.0,North,5.8,-,N/A,,Clear,10,2013-05-12 05:53:00
1:53 AM,69.1,55.9,63,30.10,10.0,NNE,4.6,-,N/A,,Clear,30,2013-05-12 06:53:00
2:53 AM,69.1,55.9,63,30.09,10.0,NNE,3.5,-,N/A,,Clear,30,2013-05-12 07:53:00
3:53 AM,68.0,57.0,68,30.10,10.0,NNE,4.6,-,N/A,,Clear,20,2013-05-12 08:53:00
4:53 AM,66.9,57.0,70,30.09,10.0,NE,5.8,-,N/A,,Clear,40,2013-05-12 09:53:00
5:53 AM,66.0,57.9,75,30.09,10.0,NNE,6.9,-,N/A,,Clear,30,2013-05-12 10:53:00
6:53 AM,66.0,57.9,75,30.13,10.0,North,4.6,-,N/A,,Clear,10,2013-05-12 11:53:00
7:53 AM,68.0,59.0,73,30.16,10.0,NNE,4.6,-,N/A,,Clear,30,2013-05-12 12:53:00
8:53 AM,71.1,60.1,68,30.17,10.0,ENE,6.9,-,N/A,,Clear,60,2013-05-12 13:53:00
9:53 AM,73.9,60.1,62,30.18,10.0,East,6.9,-,N/A,,Clear,80,2013-05-12 14:53:00
10:53 AM,77.0,55.9,48,30.18,10.0,NE,9.2,-,N/A,,Clear,40,2013-05-12 15:53:00
11:53 AM,80.1,50.0,35,30.18,10.0,NNE,16.1,20.7,N/A,,Clear,30,2013-05-12 16:53:00
12:53 PM,78.1,55.9,46,30.17,10.0,NNE,9.2,17.3,N/A,,Clear,20,2013-05-12 17:53:00
1:53 PM,78.1,55.9,46,30.17,10.0,NNE,6.9,-,N/A,,Clear,30,2013-05-12 18:53:00
2:53 PM,78.1,55.9,46,30.15,10.0,NNE,9.2,-,N/A,,Clear,30,2013-05-12 19:53:00
3:53 PM,78.1,55.9,46,30.12,10.0,East,6.9,-,N/A,,Clear,80,2013-05-12 20:53:00
4:53 PM,80.1,55.0,42,30.12,10.0,ENE,5.8,-,N/A,,Clear,60,2013-05-12 21:53:00
5:53 PM,80.1,54.0,40,30.12,10.0,ENE,6.9,-,N/A,,Clear,70,2013-05-12 22:53:00
6:53 PM,78.1,55.0,45,30.10,10.0,ENE,6.9,-,N/A,,Clear,60,2013-05-12 23:53:00
7:53 PM,75.0,55.9,51,30.12,10.0,NE,5.8,-,N/A,,Clear,40,2013-05-13 00:53:00
8:53 PM,72.0,57.0,59,30.15,10.0,NE,5.8,-,N/A,,Clear,50,2013-05-13 01:53:00
9:53 PM,70.0,57.0,63,30.17,10.0,NE,5.8,-,N/A,,Clear,50,2013-05-13 02:53:00
10:53 PM,68.0,57.0,68,30.19,10.0,Calm,Calm,-,N/A,,Clear,0,2013-05-13 03:53:00
11:53 PM,66.0,55.0,68,30.19,10.0,NE,5.8,-,N/A,,Clear,40,2013-05-13 04:53:00